Pagrindinis puslapis
METAR-TAF:

METAR-TAF

Oro uostai :

Tabukas, Saudo Arabija

platuma: 28-22N, ilguma: 036-36E, Aukštis: 778 m

Dabartinis oras

Ataskaita buvo paskelbta 54 minutes, ne 14:00 UTC
Vėjas 10 kt iš Šiaurės Vakarų
Temperatūra 22°C
Drėgmė 19%
Slėgis 1014 hPa
Matomumas 10 km arba daugiau
nėra debesų žemiau 1500 m ir nėra kamuolinių lietaus debesų

METAR: OETB 291400Z 31010KT CAVOK 22/M03 Q1014 NOSIG

Laikas: 17:54 (14:54 UTC)

Prognozė

Ataskaita buvo paskelbta 3 valandos ir 54 minutes, ne 11:00 UTC
Prognozė galioja nuo 29 metu 12 UTC su 30 metu 18 UTC
Vėjas 12 kt iš Šiaurės
Matomumas 10 km arba daugiau
Mažai debesys ne aukštis 4000 ft
Tapsmas
nuo 29 metu 18 UTC su 29 metu 20 UTC
Vėjas 3 kt nuo kintamojo kryptimis

TAF: OETB 291100Z 2912/3018 36012KT 9999 FEW040 BECMG 2918/2920 VRB03KT

Orai ataskaitas ir orų prognozės (METAR, TAF).

turimą stotys yra geltonos ir raudonos taškus žemėlapyje.

Perkelti pele per norėdami pamatyti stoties vardą.

Tada spustelėkite, norėdami matyti oro stebėjimo ir prognozės.

Norėdami pakeisti žemėlapį: spustelėkite ant žalios mygtukų su juodo kryžiaus žemyn,; žalią mygtuką su brūkšneliu, jei norite nutolinti; arba žalių rodyklių gretimoms žemėlapius.


METAR-TAF: